Aviation Digital Data Service (ADDS)

Output produced by METARs form (0748 UTC 24 May 2018)
found at http://www.aviationweather.gov/adds/metars/
 
UTAA 240700Z 07006KT 350V130 9000 NSC 30/04 Q1016 NOSIG
TAF UTAA 240436Z 2406/2506 09010G20KT 6000 SCT050 530009 
     TEMPO 2407/2415 12016G26KT 3000 DRDU 
     BECMG 2415/2416 12012KT 
     TEMPO 2416/2424 19012KT
       
UTAA 240700Z 07006KT 350V130 9000 NSC 30/04 Q1016 NOSIG
TAF UTAA 240436Z 2406/2506 09010G20KT 6000 SCT050 530009 
     TEMPO 2407/2415 12016G26KT 3000 DRDU 
     BECMG 2415/2416 12012KT 
     TEMPO 2416/2424 19012KT
       
UTAK 240700Z 14012KT CAVOK 34/00 Q1015 NOSIG
TAF UTAK 240430Z 2406/2506 09018G28KT CAVOK 530009 
     TEMPO 2408/2412 15018G28KT 5000 DRDU 
     TEMPO 2412/2417 27016KT SCT040
       
UTAM 240700Z 01012KT CAVOK 31/01 Q1015 NOSIG
TAF UTAM 240430Z 2406/2506 02016KT CAVOK 530009 
     TEMPO 2406/2412 05014G24KT 5000 NSC 
     BECMG 2415/2416 01010KT 6000 NSC
       
UTAT 240700Z 08012KT 050V120 CAVOK 28/00 Q1021 NOSIG
TAF UTAT 240438Z 2406/2506 12016KT CAVOK 530009 
     TEMPO 2406/2412 09018G28KT
       
UTAV 240700Z 02014KT CAVOK 31/02 Q1016 NOSIG
TAF UTAV 240430Z 2406/2506 07012KT CAVOK 530007 
     TEMPO 2406/2413 01018G28KT 1500 BLDU VV008 SCT050 560006 
     BECMG 2415/2417 09010KT 5000 NSC 530003 
     TEMPO 2415/2502 VRB04KT 3000 HZ FU SKC
       
UTDD 240730Z VRB02MPS 9999 FEW066 26/09 Q1018 R09/D NOSIG RMK QFE695/0927
TAF AMD UTDD 240628Z 2407/2419 VRB02MPS 6000 FEW066CB SCT150 
     PROB40 
     TEMPO 2407/2416 VRB07MPS 3100 -TSRA BR
       
UTDK 240730Z VRB01MPS 9999 NSC 28/07 Q1017 R01/09//70 RMK QFE705/0940
TAF UTDK 240600Z 2407/2416 VRB02MPS 6000 FEW066CB SCT150 
     PROB40 
     TEMPO 2407/2416 VRB07MPS 3100 -TSRA BR
       
UTDL 240730Z 24006MPS 9999 NSC 27/03 Q1018 R26/CLRD70 NOSIG RMK QFE726/0968
TAF UTDL 240600Z 2407/2416 24006MPS 9999 NSC 
     TEMPO 2412/2416 VRB02MPS
       
UTDT 240730Z 33003MPS 280V030 9999 FEW150 31/06 Q1015 35CLRD70 RMK QFE722/0963
TAF UTDT 240600Z 2407/2416 VRB02MPS 6000 FEW066CB SCT150 
     PROB40 
     TEMPO 2407/2416 VRB07MPS 3100 -TSRA BR
       
UTFF 240700Z 31012KT 9999 NSC 26/01 Q1019 R18/CLRD70
TAF UTFF 240600Z 2407/2416 35010KT 9999 NSC 
     TEMPO 2407/2416 VRB02KT FEW050CB SCT100
       
UTFN 240730Z 03006KT 360V090 9999 FEW050CB 26/02 Q1018 R28/CLRD70 NOSIG
TAF UTFN 240500Z 2406/2506 14010KT 9999 NSC 
     TEMPO 2406/2415 VRB02KT FEW050CB SCT100
       
UTNN 240730Z 05012KT CAVOK 28/M08 Q1022 R33/CLRD60 NOSIG
TAF UTNN 240500Z 2406/2506 05012G22KT CAVOK 
     TEMPO 2418/2504 VRB04KT
       
UTNU 240730Z 05014KT CAVOK 27/M02 Q1020 R31/CLRD70 NOSIG
TAF UTNU 240500Z 2406/2506 06012G22KT CAVOK 
     TEMPO 2406/2412 04014KT
       
UTSA 240730Z 02020KT 9000 NSC 28/M01 Q1017 R07/CLRD70 NOSIG
TAF UTSA 240501Z 2406/2506 02010KT 7000 NSC 
     TEMPO 2406/2417 05014G24KT
       
UTSB 240730Z 01016KT CAVOK 30/M01 Q1017 R01/CLRD70 NOSIG
TAF UTSB 240500Z 2406/2506 01010KT 7000 NSC 
     TEMPO 2406/2417 03014G24KT
       
UTSK 240730Z 34008KT 290V360 CAVOK 31/02 Q1016 R16/CLRD70
TAF UTSK 240600Z 2407/2416 07012G22KT CAVOK 
     TEMPO 2407/2415 23018G28KT SCT050CB
       
UTSS 240730Z 10010KT 070V160 9999 NSC 25/02 Q1019 R09/70D NOSIG
TAF UTSS 240500Z 2406/2506 10012G22KT 9999 NSC 
     TEMPO 2406/2415 33020G30KT FEW066CB
       
UTST 240730Z 04004KT CAVOK 32/04 Q1014 R88/CLRD70 NOSIG
TAF UTST 240500Z 2406/2506 VRB06KT 6000 SCT050 SCT060CB 
     TEMPO 2406/2410 09010G20KT 
     PROB40 
     TEMPO 2410/2421 VRB17G27KT 3000 -TSRA SQ BKN050CB
       
UTTT 240730Z 26006KT CAVOK 26/03 Q1019 R08L/CLRD70 NOSIG
TAF UTTT 240500Z 2406/2506 17012KT CAVOK
       
UTAT 240700Z 08012KT 050V120 CAVOK 28/00 Q1021 NOSIG
TAF UTAT 240438Z 2406/2506 12016KT CAVOK 530009 
     TEMPO 2406/2412 09018G28KT
       
UTAM 240700Z 01012KT CAVOK 31/01 Q1015 NOSIG
TAF UTAM 240430Z 2406/2506 02016KT CAVOK 530009 
     TEMPO 2406/2412 05014G24KT 5000 NSC 
     BECMG 2415/2416 01010KT 6000 NSC
       
UTAV 240700Z 02014KT CAVOK 31/02 Q1016 NOSIG
TAF UTAV 240430Z 2406/2506 07012KT CAVOK 530007 
     TEMPO 2406/2413 01018G28KT 1500 BLDU VV008 SCT050 560006 
     BECMG 2415/2417 09010KT 5000 NSC 530003 
     TEMPO 2415/2502 VRB04KT 3000 HZ FU SKC
       
UTAK 240700Z 14012KT CAVOK 34/00 Q1015 NOSIG
TAF UTAK 240430Z 2406/2506 09018G28KT CAVOK 530009 
     TEMPO 2408/2412 15018G28KT 5000 DRDU 
     TEMPO 2412/2417 27016KT SCT040